Time;durP1;ratioP1;P1;durP2;ratioP2;P2;SDS_P1;SDS_P2;PMS_P1;PMS_P2;Temp;Humidity;BMP_temperature;BMP_pressure;BME280_temperature;BME280_humidity;BME280_pressure;Samples;Min_cycle;Max_cycle;Signal;HPM_P1;HPM_P2
2022/06/22 03:32:48;;;;;;;;;;;;;;;13.53;74.40;99014.69;6085145;23;19931;-86
2022/06/22 03:35:22;;;;;;;;;;;;;;;13.78;75.74;99025.38;6091393;23;19922;-86
2022/06/22 03:37:50;;;;;;;;;;;;;;;13.53;80.48;99030.66;6091312;23;19917;-86
2022/06/22 03:40:44;;;;;;;;;;;;;;;14.09;81.89;99027.78;6091050;23;19918;-88
2022/06/22 03:43:43;;;;;;;;;;;;;;;;;;;;;
2022/06/22 03:46:37;;;;;;;;;;;;;;;13.93;75.89;99025.31;6059017;23;19996;-88
2022/06/22 03:49:42;;;;;;;;;;;;;;;13.92;75.66;99028.94;6060681;23;19921;-92
2022/06/22 03:52:12;;;;;;;;;;;;;;;13.83;75.70;99022.41;6061273;23;19917;-88
2022/06/22 03:54:41;;;;;;;;;;;;;;;13.57;75.87;99027.69;6037054;23;20000;-89
2022/06/22 03:57:08;;;;;;;;;;;;;;;13.37;74.78;99029.06;6036983;23;19920;-88
2022/06/22 03:59:38;;;;;;;;;;;;;;;13.74;76.77;99031.91;6058997;23;19937;-89
2022/06/22 04:02:03;;;;;;;;;;;;;;;13.57;74.66;99024.19;6060969;23;19917;-86
2022/06/22 04:04:29;;;;;;;;;;;;;;;13.63;74.49;99029.97;6060892;23;19925;-87
2022/06/22 04:06:55;;;;;;;;;;;;;;;13.57;74.70;99021.53;6065955;23;19914;-86
2022/06/22 04:09:23;;;;;;;;;;;;;;;13.65;74.09;99011.22;6090880;23;19917;-87
2022/06/22 04:12:08;;;;;;;;;;;;;;;13.48;74.69;99015.00;6092490;23;19949;-88
2022/06/22 04:14:42;;;;;;;;;;;;;;;13.57;77.67;99006.41;6090966;23;20302;-89
2022/06/22 04:17:10;;;;;;;;;;;;;;;13.52;82.40;99010.34;6090822;23;19963;-88
2022/06/22 04:19:39;;;;;;;;;;;;;;;13.86;85.56;99008.91;6090976;23;20325;-88
2022/06/22 04:22:11;;;;;;;;;;;;;;;13.85;82.60;99012.53;6091162;23;19959;-89
2022/06/22 04:24:49;;;;;;;;;;;;;;;13.44;79.92;99008.22;6092135;23;19920;-88
2022/06/22 04:27:24;;;;;;;;;;;;;;;13.17;78.47;99017.03;6090737;23;19921;-88
2022/06/22 04:30:05;;;;;;;;;;;;;;;13.77;79.09;99009.56;6089395;23;19992;-88
2022/06/22 04:32:34;;;;;;;;;;;;;;;13.36;77.25;99018.50;6090885;23;19928;-88
2022/06/22 04:35:38;;;;;;;;;;;;;;;13.30;78.75;99011.75;6092242;23;19914;-87
2022/06/22 07:45:14;;;;;;;;;;;;;;;13.55;76.50;99060.72;6263039;22;19915;-90
2022/06/22 07:48:01;;;;;;;;;;;;;;;13.36;74.96;99050.44;6279060;22;19926;-89
2022/06/22 07:50:29;;;;;;;;;;;;;;;13.02;75.93;99042.81;6292072;22;19941;-90
2022/06/22 07:52:57;;;;;;;;;;;;;;;13.09;78.94;99040.63;6279955;22;19918;-90
2022/06/22 07:55:37;;;;;;;;;;;;;;;13.72;81.23;99039.16;6280301;22;19918;-91
2022/06/22 07:58:24;;;;;;;;;;;;;;;13.61;76.17;99036.34;6278332;22;19941;-90
2022/06/22 08:03:33;;;;;;;;;;;;;;;13.19;75.76;99043.53;6178152;22;19924;-91
2022/06/22 08:16:51;;;;;;;;;;;;;;;13.52;77.49;99031.66;6177803;22;19928;-90
2022/06/22 08:22:24;;;;;;;;;;;;;;;13.34;81.09;99039.03;6191596;22;19932;-90
2022/06/22 08:29:58;;;;;;;;;;;;;;;;;;;;;
2022/06/22 08:37:32;;;;;;;;;;;;;;;13.66;79.67;99036.03;6292284;22;19923;-89
2022/06/22 08:42:58;;;;;;;;;;;;;;;13.59;77.19;99046.22;6301039;22;19956;-89
2022/06/22 08:59:40;;;;;;;;;;;;;;;13.68;75.55;99058.94;6305172;22;19923;-87
2022/06/22 09:02:18;;;;;;;;;;;;;;;13.51;77.36;99067.19;6279054;22;19947;-84
2022/06/22 09:04:50;;;;;;;;;;;;;;;13.89;79.65;99063.75;6279550;22;19911;-90
2022/06/22 09:07:57;;;;;;;;;;;;;;;13.91;78.49;99060.06;6164764;22;20290;-89
2022/06/22 09:10:34;;;;;;;;;;;;;;;13.98;76.29;99061.31;6124119;23;19956;-88
2022/06/22 09:13:00;;;;;;;;;;;;;;;14.00;79.36;99058.56;6123444;23;19913;-89
2022/06/22 09:21:52;;;;;;;;;;;;;;;14.04;80.46;99065.38;6181644;23;19913;-89
2022/06/22 09:24:27;;;;;;;;;;;;;;;;;;;;;
2022/06/22 09:42:03;;;;;;;;;;;;;;;12.93;78.67;99072.66;6179510;22;20310;-87
2022/06/22 09:48:20;;;;;;;;;;;;;;;;;;;;;
2022/06/22 09:53:56;;;;;;;;;;;;;;;;;;;;;
2022/06/22 10:02:18;;;;;;;;;;;;;;;;;;;;;
2022/06/22 10:08:22;;;;;;;;;;;;;;;14.05;83.59;99071.56;6281952;22;19922;-89
2022/06/22 10:19:44;;;;;;;;;;;;;;;13.88;79.13;99073.56;6121988;23;19921;-90
2022/06/22 10:26:06;;;;;;;;;;;;;;;;;;;;;
2022/06/22 10:31:46;;;;;;;;;;;;;;;13.98;83.87;99081.78;6184747;23;19982;-90
2022/06/22 10:34:51;;;;;;;;;;;;;;;14.37;81.59;99079.13;6250135;22;19918;-90
2022/06/22 10:37:28;;;;;;;;;;;;;;;13.92;82.88;99076.88;6209503;23;19912;-90
2022/06/22 10:52:54;;;;;;;;;;;;;;;;;;;;;
2022/06/22 10:57:57;;;;;;;;;;;;;;;14.03;83.06;99068.16;6179501;22;19925;-89
2022/06/22 11:00:45;;;;;;;;;;;;;;;14.52;84.12;99070.06;6285573;22;19917;-89
2022/06/22 11:03:23;;;;;;;;;;;;;;;;;;;;;
2022/06/22 11:06:43;;;;;;;;;;;;;;;14.15;83.11;99084.16;6183514;23;19955;-96
2022/06/22 11:09:21;;;;;;;;;;;;;;;14.16;85.41;99083.16;6181593;22;19913;-87
2022/06/22 11:12:31;;;;;;;;;;;;;;;;;;;;;
2022/06/22 11:18:29;;;;;;;;;;;;;;;14.41;81.98;99077.94;6177990;22;19942;-89
2022/06/22 11:32:00;;;;;;;;;;;;;;;14.62;84.92;99075.63;6174813;22;19926;-92
2022/06/22 11:34:31;;;;;;;;;;;;;;;14.33;84.34;99081.16;6281112;22;19968;-89
2022/06/22 11:40:16;;;;;;;;;;;;;;;;;;;;;
2022/06/22 12:56:43;;;;;;;;;;;;;;;14.69;89.99;99012.91;6306167;22;19931;-90
2022/06/22 12:59:56;;;;;;;;;;;;;;;;;;;;;
2022/06/22 13:02:55;;;;;;;;;;;;;;;14.58;89.78;99000.31;6307391;22;20001;-91
2022/06/22 13:20:18;;;;;;;;;;;;;;;;;;;;;
2022/06/22 13:42:23;;;;;;;;;;;;;;;;;;;;;
2022/06/22 13:51:50;;;;;;;;;;;;;;;;;;;;;
2022/06/22 13:54:25;;;;;;;;;;;;;;;15.13;90.60;98978.63;6243226;23;20002;-92
2022/06/22 14:07:21;;;;;;;;;;;;;;;14.85;89.42;98973.50;6174795;23;20007;-90
2022/06/22 14:10:22;;;;;;;;;;;;;;;;;;;;;
2022/06/22 14:22:29;;;;;;;;;;;;;;;;;;;;;
2022/06/22 14:25:18;;;;;;;;;;;;;;;15.18;85.67;98955.94;6065328;23;19992;-90
2022/06/22 14:35:08;;;;;;;;;;;;;;;;;;;;;
2022/06/22 14:38:01;;;;;;;;;;;;;;;15.26;88.44;98926.84;6117814;23;20364;-90
2022/06/22 14:43:58;;;;;;;;;;;;;;;;;;;;;
2022/06/22 14:50:17;;;;;;;;;;;;;;;;;;;;;
2022/06/22 15:15:54;;;;;;;;;;;;;;;15.28;96.40;98982.78;6142615;22;20248;-89
2022/06/22 15:58:51;;;;;;;;;;;;;;;15.91;99.10;98967.34;6293714;22;19983;31
2022/06/22 16:15:09;;;;;;;;;;;;;;;;;;;;;
2022/06/22 18:07:19;;;;;;;;;;;;;;;15.57;93.82;98985.94;6129800;22;19920;-87
2022/06/22 18:17:59;;;;;;;;;;;;;;;15.87;92.57;98978.38;6331012;22;20364;-89
2022/06/22 18:23:54;;;;;;;;;;;;;;;15.28;88.68;98976.59;6243868;22;20576;-87
2022/06/22 18:26:23;;;;;;;;;;;;;;;13.85;93.39;98975.25;6337626;22;20269;-87
2022/06/22 18:28:51;;;;;;;;;;;;;;;13.76;95.30;98970.56;6311690;22;20250;-88
2022/06/22 18:31:31;;;;;;;;;;;;;;;13.40;92.77;98975.63;6339279;22;19993;-88
2022/06/22 18:34:03;;;;;;;;;;;;;;;13.72;94.26;98975.25;6339258;22;20284;-89
2022/06/22 18:36:33;;;;;;;;;;;;;;;13.38;93.74;98974.03;6339270;22;19915;-86
2022/06/22 18:42:12;;;;;;;;;;;;;;;13.47;95.69;98972.56;6338023;22;20337;-86
2022/06/22 18:44:43;;;;;;;;;;;;;;;13.20;92.41;98974.25;6339124;22;19914;-87
2022/06/22 18:47:08;;;;;;;;;;;;;;;13.21;94.10;98980.44;6311961;22;19957;-86
2022/06/22 18:49:52;;;;;;;;;;;;;;;13.61;96.30;98986.63;6311393;22;19915;-87
2022/06/22 18:52:25;;;;;;;;;;;;;;;13.03;93.10;98995.81;6311529;22;19967;-87
2022/06/22 18:54:56;;;;;;;;;;;;;;;13.39;95.79;98984.56;6339108;22;19911;-86
2022/06/22 18:57:43;;;;;;;;;;;;;;;13.40;96.18;98985.41;6310125;22;20301;-86
2022/06/22 19:00:25;;;;;;;;;;;;;;;13.05;95.46;98996.53;6311719;22;19910;-87
2022/06/22 19:03:03;;;;;;;;;;;;;;;13.16;97.56;98999.38;6311580;22;20348;-88
2022/06/22 19:05:31;;;;;;;;;;;;;;;12.86;95.92;98996.88;6339166;22;19914;-88
2022/06/22 19:08:04;;;;;;;;;;;;;;;12.92;97.25;98985.88;6311532;22;19965;-87
2022/06/22 19:10:33;;;;;;;;;;;;;;;13.54;100.00;98995.97;6338811;22;19911;-89
2022/06/22 19:13:18;;;;;;;;;;;;;;;12.96;96.73;98998.00;6337685;22;19949;-88
2022/06/22 19:16:05;;;;;;;;;;;;;;;12.91;99.14;99002.78;6309267;22;19914;-87
2022/06/22 19:18:49;;;;;;;;;;;;;;;13.02;99.95;99004.72;6338721;22;19993;-86
2022/06/22 19:21:20;;;;;;;;;;;;;;;12.68;98.94;99010.44;6311595;22;20237;-86
2022/06/22 19:23:48;;;;;;;;;;;;;;;13.12;100.00;99008.50;6338867;22;19911;-87
2022/06/22 19:26:16;;;;;;;;;;;;;;;12.77;99.06;99010.81;6337610;22;19941;-86
2022/06/22 19:28:44;;;;;;;;;;;;;;;12.82;99.63;99016.66;6338776;22;19911;-86
2022/06/22 19:31:17;;;;;;;;;;;;;;;13.23;100.00;99021.09;6338692;22;19925;-87
2022/06/22 19:33:47;;;;;;;;;;;;;;;12.72;98.92;99025.22;6338607;22;19917;-88
2022/06/22 19:36:19;;;;;;;;;;;;;;;13.03;100.00;99031.22;6310689;22;20310;-87
2022/06/22 19:39:03;;;;;;;;;;;;;;;13.21;100.00;99036.28;6338591;22;19917;-85
2022/06/22 19:41:30;;;;;;;;;;;;;;;13.67;100.00;99040.41;6310353;22;19922;-87
2022/06/22 19:44:09;;;;;;;;;;;;;;;13.73;100.00;99034.66;6311192;22;19911;-88
2022/06/22 19:46:49;;;;;;;;;;;;;;;13.44;100.00;99034.81;6338609;22;19990;-88
2022/06/22 19:49:33;;;;;;;;;;;;;;;13.06;100.00;99041.66;6338681;22;20241;-89
2022/06/22 19:52:18;;;;;;;;;;;;;;;13.46;100.00;99048.88;6338545;22;20273;-88
2022/06/22 19:54:58;;;;;;;;;;;;;;;12.90;100.00;99041.78;6311166;22;19911;-88
2022/06/22 19:57:23;;;;;;;;;;;;;;;13.23;100.00;99035.25;6309327;22;19921;-89
2022/06/22 19:59:51;;;;;;;;;;;;;;;13.42;100.00;99042.91;6338736;22;20005;-89
2022/06/22 20:02:27;;;;;;;;;;;;;;;12.80;100.00;99039.84;6310887;22;19910;-87
2022/06/22 20:05:05;;;;;;;;;;;;;;;13.20;100.00;99042.59;6338393;22;19915;-89
2022/06/22 20:07:39;;;;;;;;;;;;;;;13.35;100.00;99038.06;6311163;22;19936;-87
2022/06/22 20:10:05;;;;;;;;;;;;;;;12.87;100.00;99043.81;6338475;22;19914;-87
2022/06/22 20:12:45;;;;;;;;;;;;;;;13.22;100.00;99057.47;6309712;22;20276;-89
2022/06/22 20:15:15;;;;;;;;;;;;;;;13.07;100.00;99071.78;6338490;22;19915;-90
2022/06/22 20:17:47;;;;;;;;;;;;;;;13.05;100.00;99076.31;6338455;22;19925;-89
2022/06/22 20:20:14;;;;;;;;;;;;;;;13.26;100.00;99074.94;6311004;22;19925;-87
2022/06/22 20:22:53;;;;;;;;;;;;;;;12.82;100.00;99085.78;6338325;22;19918;-87
2022/06/22 20:25:37;;;;;;;;;;;;;;;13.12;100.00;99088.28;6310997;22;19910;-90
2022/06/22 20:28:21;;;;;;;;;;;;;;;13.41;100.00;99091.75;6309324;22;19942;-88
2022/06/22 20:30:53;;;;;;;;;;;;;;;12.84;100.00;99094.50;6338307;22;19910;-87
2022/06/22 20:36:15;;;;;;;;;;;;;;;13.12;100.00;99092.78;6247509;22;20324;-87
2022/06/22 20:38:46;;;;;;;;;;;;;;;12.94;100.00;99095.66;6248722;22;19922;-89
2022/06/22 20:42:11;;;;;;;;;;;;;;;13.30;100.00;99090.72;6247288;22;19919;-88
2022/06/22 20:44:50;;;;;;;;;;;;;;;12.76;100.00;99094.16;6241899;22;19911;-89
2022/06/22 20:47:27;;;;;;;;;;;;;;;13.15;100.00;99096.06;6275946;22;19918;-89
2022/06/22 20:49:59;;;;;;;;;;;;;;;13.06;100.00;99110.81;6276413;22;19915;-87
2022/06/22 20:52:24;;;;;;;;;;;;;;;12.81;100.00;99108.88;6275846;22;19993;-87
2022/06/22 20:55:05;;;;;;;;;;;;;;;13.14;100.00;99110.31;6248897;22;19953;-96
2022/06/22 21:00:46;;;;;;;;;;;;;;;13.02;100.00;99125.25;6313041;22;19922;-89
2022/06/22 21:03:12;;;;;;;;;;;;;;;13.26;100.00;99133.47;6309443;22;19918;-88
2022/06/22 21:05:57;;;;;;;;;;;;;;;12.76;100.00;99142.84;6310351;22;19911;-88
2022/06/22 21:08:24;;;;;;;;;;;;;;;13.20;100.00;99149.81;6288840;22;19916;-90
2022/06/22 21:11:03;;;;;;;;;;;;;;;13.15;100.00;99143.94;6284020;22;19916;-91
2022/06/22 21:13:40;;;;;;;;;;;;;;;12.83;100.00;99149.50;6284251;22;20338;-89
2022/06/22 21:16:48;;;;;;;;;;;;;;;13.16;100.00;99151.00;6284154;22;19921;-88
2022/06/22 21:19:12;;;;;;;;;;;;;;;12.81;100.00;99154.06;6180989;22;19934;-88
2022/06/22 21:24:54;;;;;;;;;;;;;;;13.24;100.00;99151.34;6177569;22;19924;-87
2022/06/22 21:27:26;;;;;;;;;;;;;;;12.89;100.00;99145.59;6282685;22;20324;-87
2022/06/22 21:30:20;;;;;;;;;;;;;;;13.19;100.00;99153.44;6280807;22;19916;-87
2022/06/22 21:35:49;;;;;;;;;;;;;;;13.11;100.00;99165.53;6180467;23;19992;-87
2022/06/22 21:38:34;;;;;;;;;;;;;;;13.32;100.00;99161.47;6283042;22;19920;-87
2022/06/22 21:41:04;;;;;;;;;;;;;;;12.76;100.00;99174.72;6179513;22;19916;-86
2022/06/22 21:43:29;;;;;;;;;;;;;;;13.18;100.00;99170.34;6180120;23;19923;-86
2022/06/22 21:46:34;;;;;;;;;;;;;;;;;;;;;
2022/06/22 21:49:18;;;;;;;;;;;;;;;12.96;100.00;99164.69;6162661;23;19981;-86
2022/06/22 21:51:55;;;;;;;;;;;;;;;13.30;100.00;99171.38;6179995;23;19920;-88
2022/06/22 21:54:29;;;;;;;;;;;;;;;12.62;100.00;99185.34;6181202;23;19919;-85
2022/06/22 21:57:13;;;;;;;;;;;;;;;13.05;100.00;99180.03;6179820;22;19935;-88
2022/06/22 21:59:44;;;;;;;;;;;;;;;13.33;100.00;99181.00;6181178;23;19986;-86
2022/06/22 22:02:20;;;;;;;;;;;;;;;12.85;100.00;99184.81;6181553;22;19957;-88
2022/06/22 22:05:03;;;;;;;;;;;;;;;13.25;100.00;99184.97;6181010;23;19995;-88
2022/06/22 22:07:47;;;;;;;;;;;;;;;13.06;100.00;99179.09;6285747;22;20247;-86
2022/06/22 22:10:14;;;;;;;;;;;;;;;13.04;100.00;99178.34;6285605;22;19920;-88
2022/06/22 22:12:43;;;;;;;;;;;;;;;13.33;100.00;99181.00;6284434;22;19916;-87
2022/06/22 22:15:15;;;;;;;;;;;;;;;12.80;100.00;99181.59;6181485;22;19916;-87
2022/06/22 22:17:44;;;;;;;;;;;;;;;13.15;100.00;99173.22;6181166;23;19916;-86
2022/06/22 22:20:12;;;;;;;;;;;;;;;13.35;100.00;99179.09;6181115;23;19916;-85
2022/06/22 22:22:45;;;;;;;;;;;;;;;12.84;100.00;99172.47;6285532;22;19962;-86
2022/06/22 22:25:18;;;;;;;;;;;;;;;13.29;100.00;99167.03;6181207;23;19920;-86
2022/06/22 22:27:45;;;;;;;;;;;;;;;13.30;100.00;99175.84;6179570;23;20225;-86
2022/06/22 22:30:13;;;;;;;;;;;;;;;12.85;100.00;99183.97;6181217;23;19969;-86
2022/06/22 22:32:42;;;;;;;;;;;;;;;13.22;100.00;99187.81;6181580;22;20388;-86
2022/06/22 22:35:17;;;;;;;;;;;;;;;13.10;100.00;99180.63;6285536;22;19912;-87
2022/06/22 22:37:44;;;;;;;;;;;;;;;13.04;100.00;99176.53;6179435;22;19939;-87
2022/06/22 22:40:22;;;;;;;;;;;;;;;13.32;100.00;99163.28;6306507;22;19918;-88
2022/06/22 22:42:47;;;;;;;;;;;;;;;12.88;100.00;99163.34;6305019;22;20379;-88
2022/06/22 22:45:15;;;;;;;;;;;;;;;13.13;100.00;99164.47;6308269;22;19946;-87
2022/06/22 22:47:41;;;;;;;;;;;;;;;13.46;100.00;99176.59;6308423;22;19957;-88
2022/06/22 22:50:26;;;;;;;;;;;;;;;12.84;100.00;99164.50;6306495;22;19917;-88
2022/06/22 22:53:01;;;;;;;;;;;;;;;13.18;100.00;99161.50;6303852;22;19968;-88
2022/06/22 22:55:29;;;;;;;;;;;;;;;13.32;100.00;99160.63;6307927;22;20246;-89
2022/06/22 22:57:57;;;;;;;;;;;;;;;12.87;100.00;99161.63;6306527;22;19911;-89
2022/06/22 23:00:29;;;;;;;;;;;;;;;13.26;100.00;99164.56;6306960;22;19977;-89
2022/06/22 23:02:59;;;;;;;;;;;;;;;13.06;100.00;99165.81;6308010;22;19915;-90
2022/06/22 23:05:26;;;;;;;;;;;;;;;13.00;100.00;99163.53;6307588;22;20452;-87
2022/06/22 23:07:55;;;;;;;;;;;;;;;13.34;100.00;99162.28;6306271;22;19939;-88
2022/06/22 23:10:25;;;;;;;;;;;;;;;13.03;100.00;99158.03;6284091;22;19965;-88
2022/06/22 23:19:15;;;;;;;;;;;;;;;12.96;100.00;99151.41;6181257;23;19985;-89
2022/06/22 23:21:42;;;;;;;;;;;;;;;13.20;100.00;99160.47;6285240;22;20333;-89
2022/06/22 23:24:19;;;;;;;;;;;;;;;12.98;100.00;99153.00;6180774;23;20325;-89
2022/06/22 23:26:50;;;;;;;;;;;;;;;13.00;100.00;99150.22;6283454;22;19923;-88
